Time;durP1;ratioP1;P1;durP2;ratioP2;P2;SDS_P1;SDS_P2;PMS_P1;PMS_P2;Temp;Humidity;BMP_temperature;BMP_pressure;BME280_temperature;BME280_humidity;BME280_pressure;Samples;Min_cycle;Max_cycle;Signal;HPM_P1;HPM_P2
2021/05/04 00:01:48;;;;;;;12.10;7.67;;;;;;;;;;744283;185;920291;-75
2021/05/04 00:04:14;;;;;;;12.40;9.50;;;;;;;;;;746232;185;917989;-76
2021/05/04 00:06:40;;;;;;;13.57;10.07;;;;;;;;;;736269;185;2358830;-74
2021/05/04 00:09:05;;;;;;;14.43;9.63;;;;;;;;;;752374;186;920245;-75
2021/05/04 00:11:31;;;;;;;13.40;9.93;;;;;;;;;;743733;185;918995;-75
2021/05/04 00:13:57;;;;;;;11.13;9.37;;;;;;;;;;749437;185;629494;-77
2021/05/04 00:16:23;;;;;;;14.73;9.60;;;;;;;;;;750877;184;647626;-76
2021/05/04 00:18:49;;;;;;;12.77;9.03;;;;;;;;;;744782;186;919580;-76
2021/05/04 00:21:15;;;;;;;15.70;9.00;;;;;;;;;;746400;186;917557;-75
2021/05/04 00:23:41;;;;;;;14.17;10.70;;;;;;;;;;747844;185;918239;-76
2021/05/04 00:26:08;;;;;;;17.27;10.07;;;;;;;;;;744370;185;918640;-76
2021/05/04 00:28:32;;;;;;;13.23;9.30;;;;;;;;;;742809;185;1024158;-76
2021/05/04 00:30:58;;;;;;;15.97;9.03;;;;;;;;;;746324;185;918683;-75
2021/05/04 00:33:24;;;;;;;14.50;10.27;;;;;;;;;;746764;185;980632;-76
2021/05/04 00:35:50;;;;;;;14.60;10.33;;;;;;;;;;744271;187;919635;-76
2021/05/04 00:38:16;;;;;;;15.10;9.27;;;;;;;;;;743548;184;912831;-73
2021/05/04 00:40:42;;;;;;;13.77;9.80;;;;;;;;;;748639;187;918818;-76
2021/05/04 00:43:08;;;;;;;14.07;9.20;;;;;;;;;;743566;187;917889;-76
2021/05/04 00:45:34;;;;;;;13.00;8.87;;;;;;;;;;755756;185;626232;-76
2021/05/04 00:48:00;;;;;;;10.87;7.77;;;;;;;;;;748435;185;922669;-76
2021/05/04 00:50:26;;;;;;;9.50;8.23;;;;;;;;;;744515;186;919785;-76
2021/05/04 00:52:52;;;;;;;12.77;7.33;;;;;;;;;;733818;187;2523008;-75
2021/05/04 00:55:18;;;;;;;12.03;8.60;;;;;;;;;;748644;186;919689;-75
2021/05/04 00:57:44;;;;;;;11.87;8.53;;;;;;;;;;742493;186;919489;-75
2021/05/04 01:00:12;;;;;;;14.82;8.02;;;;;;;;;;742893;186;920409;-75
2021/05/04 01:02:37;;;;;;;9.93;7.47;;;;;;;;;;744379;184;918353;-76
2021/05/04 01:05:03;;;;;;;12.20;8.17;;;;;;;;;;746944;186;911754;-75
2021/05/04 01:07:29;;;;;;;15.77;9.20;;;;;;;;;;745996;186;1011093;-74
2021/05/04 01:09:55;;;;;;;10.70;9.03;;;;;;;;;;744050;185;912205;-74
2021/05/04 01:12:21;;;;;;;12.80;9.03;;;;;;;;;;750587;186;919509;-74
2021/05/04 01:14:47;;;;;;;13.90;10.13;;;;;;;;;;743153;184;1153507;-75
2021/05/04 01:17:12;;;;;;;21.30;10.60;;;;;;;;;;751307;185;919419;-75
2021/05/04 01:19:38;;;;;;;12.30;9.48;;;;;;;;;;747454;186;918526;-75
2021/05/04 01:22:04;;;;;;;13.90;9.90;;;;;;;;;;745064;185;930275;-75
2021/05/04 01:24:30;;;;;;;11.50;8.87;;;;;;;;;;744153;185;919887;-74
2021/05/04 01:26:58;;;;;;;13.93;9.57;;;;;;;;;;744619;186;1237715;-75
2021/05/04 01:29:22;;;;;;;14.63;10.33;;;;;;;;;;746909;184;1016694;-74
2021/05/04 01:31:48;;;;;;;12.80;9.93;;;;;;;;;;743400;187;915296;-75
2021/05/04 01:34:14;;;;;;;13.17;10.10;;;;;;;;;;742441;184;915235;-74
2021/05/04 01:36:40;;;;;;;11.23;9.47;;;;;;;;;;749196;186;918676;-73
2021/05/04 01:39:06;;;;;;;13.52;9.65;;;;;;;;;;745997;184;918813;-75
2021/05/04 01:41:32;;;;;;;12.37;10.60;;;;;;;;;;744172;186;919078;-75
2021/05/04 01:43:58;;;;;;;14.63;10.02;;;;;;;;;;748196;185;919246;-74
2021/05/04 01:46:24;;;;;;;14.80;9.90;;;;;;;;;;744188;185;918236;-75
2021/05/04 01:48:50;;;;;;;13.45;9.80;;;;;;;;;;743023;187;935121;-74
2021/05/04 01:51:16;;;;;;;11.83;8.50;;;;;;;;;;743722;185;985509;-74
2021/05/04 01:53:41;;;;;;;14.23;9.50;;;;;;;;;;753280;184;920143;-75
2021/05/04 01:56:07;;;;;;;11.00;9.10;;;;;;;;;;741257;186;918570;-74
2021/05/04 01:58:33;;;;;;;13.35;9.20;;;;;;;;;;742572;185;918611;-75
2021/05/04 02:00:59;;;;;;;18.00;10.63;;;;;;;;;;745868;185;1128233;-75
2021/05/04 02:03:25;;;;;;;14.00;9.50;;;;;;;;;;742626;187;1407914;-75
2021/05/04 02:05:51;;;;;;;14.80;9.93;;;;;;;;;;743462;187;911769;-77
2021/05/04 02:08:16;;;;;;;16.17;9.70;;;;;;;;;;749473;187;919005;-76
2021/05/04 02:10:42;;;;;;;15.57;10.70;;;;;;;;;;743090;187;895265;-74
2021/05/04 02:13:08;;;;;;;17.10;12.33;;;;;;;;;;745289;185;918877;-74
2021/05/04 02:15:34;;;;;;;17.40;10.67;;;;;;;;;;747539;187;919079;-74
2021/05/04 02:18:00;;;;;;;13.40;9.40;;;;;;;;;;739906;187;918946;-74
2021/05/04 02:20:26;;;;;;;14.00;8.47;;;;;;;;;;743733;188;901468;-75
2021/05/04 02:22:51;;;;;;;13.50;8.83;;;;;;;;;;742451;186;1017942;-75
2021/05/04 02:25:17;;;;;;;17.17;10.10;;;;;;;;;;754338;185;919194;-77
2021/05/04 02:27:43;;;;;;;12.50;8.90;;;;;;;;;;744587;185;917089;-77
2021/05/04 02:30:09;;;;;;;18.77;10.57;;;;;;;;;;745024;187;918379;-76
2021/05/04 02:32:35;;;;;;;15.83;12.37;;;;;;;;;;747140;185;918742;-72
2021/05/04 02:35:01;;;;;;;18.30;11.50;;;;;;;;;;746859;183;919385;-74
2021/05/04 02:37:27;;;;;;;12.88;9.95;;;;;;;;;;743916;186;918695;-75
2021/05/04 02:39:53;;;;;;;15.10;9.07;;;;;;;;;;749007;185;919015;-76
2021/05/04 02:42:19;;;;;;;15.43;10.53;;;;;;;;;;740870;184;1312009;-76
2021/05/04 02:44:44;;;;;;;12.30;9.10;;;;;;;;;;745704;185;915225;-77
2021/05/04 02:47:10;;;;;;;15.53;9.53;;;;;;;;;;742904;186;918162;-76
2021/05/04 02:49:36;;;;;;;17.63;9.87;;;;;;;;;;753450;183;918429;-76
2021/05/04 02:52:03;;;;;;;13.37;9.63;;;;;;;;;;743044;185;919396;-76
2021/05/04 02:54:28;;;;;;;15.27;10.73;;;;;;;;;;741642;185;918785;-76
2021/05/04 02:56:54;;;;;;;17.00;11.70;;;;;;;;;;748116;185;919092;-76
2021/05/04 02:59:19;;;;;;;18.03;10.97;;;;;;;;;;744917;185;918249;-77
2021/05/04 03:01:45;;;;;;;18.47;12.30;;;;;;;;;;746949;187;627097;-77
2021/05/04 03:04:11;;;;;;;12.30;9.20;;;;;;;;;;748382;185;919265;-77
2021/05/04 03:06:37;;;;;;;14.57;11.03;;;;;;;;;;749075;185;617153;-77
2021/05/04 03:09:03;;;;;;;17.77;11.50;;;;;;;;;;746304;186;768160;-77
2021/05/04 03:11:29;;;;;;;16.10;11.03;;;;;;;;;;748906;185;919211;-76
2021/05/04 03:13:55;;;;;;;15.57;11.20;;;;;;;;;;742842;185;919244;-76
2021/05/04 03:16:21;;;;;;;14.20;10.30;;;;;;;;;;747931;184;919039;-76
2021/05/04 03:18:46;;;;;;;17.23;10.70;;;;;;;;;;734979;188;910577;-76
2021/05/04 03:21:12;;;;;;;14.50;11.17;;;;;;;;;;721651;194;918659;-76
2021/05/04 03:23:38;;;;;;;15.00;10.77;;;;;;;;;;743602;185;918499;-76
2021/05/04 03:26:04;;;;;;;16.53;11.97;;;;;;;;;;743656;186;918364;-76
2021/05/04 03:28:30;;;;;;;17.47;11.03;;;;;;;;;;750519;185;919528;-75
2021/05/04 03:30:56;;;;;;;13.40;10.60;;;;;;;;;;743807;186;900654;-77
2021/05/04 03:33:21;;;;;;;13.85;10.95;;;;;;;;;;750915;184;917778;-76
2021/05/04 03:35:47;;;;;;;15.67;11.67;;;;;;;;;;750356;186;900107;-77
2021/05/04 03:38:13;;;;;;;17.83;11.67;;;;;;;;;;746680;185;918383;-76
2021/05/04 03:40:39;;;;;;;17.13;11.40;;;;;;;;;;744805;185;919972;-77
2021/05/04 03:43:05;;;;;;;16.80;10.30;;;;;;;;;;743665;185;1024421;-76
2021/05/04 03:45:31;;;;;;;14.60;10.90;;;;;;;;;;745404;184;918864;-76
2021/05/04 03:47:58;;;;;;;17.00;11.83;;;;;;;;;;743832;185;1020607;-76
2021/05/04 03:50:24;;;;;;;17.80;12.90;;;;;;;;;;742206;185;919019;-76
2021/05/04 03:52:50;;;;;;;29.53;14.63;;;;;;;;;;750144;186;919836;-76
2021/05/04 03:55:15;;;;;;;13.02;10.90;;;;;;;;;;744123;185;920068;-76
2021/05/04 03:57:41;;;;;;;19.00;12.73;;;;;;;;;;746099;185;1021427;-76
2021/05/04 04:00:08;;;;;;;19.20;12.97;;;;;;;;;;747877;185;919727;-76
2021/05/04 04:02:34;;;;;;;16.97;13.40;;;;;;;;;;747645;185;917525;-75
2021/05/04 04:05:02;;;;;;;17.00;11.80;;;;;;;;;;742254;185;1021320;-75
2021/05/04 04:07:29;;;;;;;19.50;13.67;;;;;;;;;;742329;187;919358;-76
2021/05/04 04:09:54;;;;;;;17.20;12.43;;;;;;;;;;749384;185;920233;-76
2021/05/04 04:12:20;;;;;;;18.60;14.00;;;;;;;;;;743214;185;918203;-75
2021/05/04 04:14:45;;;;;;;19.87;14.07;;;;;;;;;;745423;185;1021606;-76
2021/05/04 04:17:11;;;;;;;20.47;14.70;;;;;;;;;;749430;185;887444;-73
2021/05/04 04:19:37;;;;;;;17.90;13.80;;;;;;;;;;744648;186;1021030;-74
2021/05/04 04:22:03;;;;;;;28.87;17.83;;;;;;;;;;745534;185;918442;-74
2021/05/04 04:24:30;;;;;;;26.27;17.58;;;;;;;;;;748811;186;915675;-74
2021/05/04 04:26:55;;;;;;;28.17;18.03;;;;;;;;;;742225;186;920719;-74
2021/05/04 04:29:21;;;;;;;26.07;16.40;;;;;;;;;;746676;184;874658;-74
2021/05/04 04:31:47;;;;;;;26.70;18.57;;;;;;;;;;743518;185;919681;-73
2021/05/04 04:34:12;;;;;;;28.90;18.60;;;;;;;;;;749752;185;917587;-74
2021/05/04 04:36:38;;;;;;;23.97;16.53;;;;;;;;;;743232;185;917479;-74
2021/05/04 04:39:04;;;;;;;29.37;18.23;;;;;;;;;;744407;185;917718;-74
2021/05/04 04:41:30;;;;;;;27.57;17.00;;;;;;;;;;747321;186;909621;-73
2021/05/04 04:43:56;;;;;;;31.20;19.03;;;;;;;;;;746729;185;921413;-73
2021/05/04 04:46:22;;;;;;;33.20;20.27;;;;;;;;;;746993;186;921173;-73
2021/05/04 04:48:48;;;;;;;33.10;21.17;;;;;;;;;;747554;186;914305;-72
2021/05/04 04:51:14;;;;;;;36.63;22.47;;;;;;;;;;745810;186;913613;-74
2021/05/04 04:53:39;;;;;;;36.67;22.27;;;;;;;;;;744576;185;931890;-72
2021/05/04 04:56:05;;;;;;;34.23;22.27;;;;;;;;;;748873;185;915739;-71
2021/05/04 04:58:31;;;;;;;36.20;23.80;;;;;;;;;;736913;185;2174544;-71
2021/05/04 05:00:57;;;;;;;46.40;26.40;;;;;;;;;;748359;186;1038975;-74
2021/05/04 05:03:24;;;;;;;44.55;25.15;;;;;;;;;;741361;186;950892;-75
2021/05/04 05:05:49;;;;;;;38.83;22.50;;;;;;;;;;751743;187;917991;-77
2021/05/04 05:08:15;;;;;;;36.43;20.60;;;;;;;;;;743450;185;988909;-76
2021/05/04 05:10:40;;;;;;;27.50;19.40;;;;;;;;;;744271;188;918930;-75
2021/05/04 05:13:06;;;;;;;32.37;21.50;;;;;;;;;;749490;185;919257;-74
2021/05/04 05:15:37;;;;;;;32.15;21.92;;;;;;;;;;746175;185;919432;-72
2021/05/04 05:18:04;;;;;;;32.27;22.60;;;;;;;;;;742579;185;1309557;-73
2021/05/04 05:20:24;;;;;;;36.43;19.27;;;;;;;;;;748004;186;918819;-72
2021/05/04 05:22:50;;;;;;;32.20;19.60;;;;;;;;;;746206;185;919208;-72
2021/05/04 05:25:16;;;;;;;44.63;27.03;;;;;;;;;;742060;185;919316;-70
2021/05/04 05:27:41;;;;;;;40.17;23.50;;;;;;;;;;743253;187;917773;-70
2021/05/04 05:30:08;;;;;;;27.40;18.03;;;;;;;;;;747259;186;907385;-69
2021/05/04 05:32:34;;;;;;;23.87;16.43;;;;;;;;;;744637;187;919532;-69
2021/05/04 05:35:00;;;;;;;36.93;23.70;;;;;;;;;;741965;184;920251;-70
2021/05/04 05:37:26;;;;;;;26.85;16.33;;;;;;;;;;747673;185;920240;-71
2021/05/04 05:39:51;;;;;;;31.60;16.70;;;;;;;;;;741652;186;920164;-69
2021/05/04 05:42:18;;;;;;;23.70;16.00;;;;;;;;;;742131;188;918636;-69
2021/05/04 05:44:43;;;;;;;17.67;12.30;;;;;;;;;;740906;185;1774643;-71
2021/05/04 05:47:09;;;;;;;19.87;12.87;;;;;;;;;;746589;186;919493;-71
2021/05/04 05:49:36;;;;;;;20.97;12.40;;;;;;;;;;744030;185;1030829;-69
2021/05/04 05:52:01;;;;;;;15.13;11.25;;;;;;;;;;745950;185;918294;-67
2021/05/04 05:54:27;;;;;;;18.30;11.67;;;;;;;;;;740922;187;916547;-71
2021/05/04 05:56:53;;;;;;;14.17;11.13;;;;;;;;;;744278;187;916395;-71
2021/05/04 05:59:19;;;;;;;12.43;8.57;;;;;;;;;;748131;185;904246;-72
2021/05/04 06:01:45;;;;;;;16.47;10.87;;;;;;;;;;748057;186;914742;-71
2021/05/04 06:04:10;;;;;;;13.70;9.80;;;;;;;;;;744375;185;916741;-72
2021/05/04 06:06:36;;;;;;;10.43;7.70;;;;;;;;;;741953;185;916133;-72
2021/05/04 06:09:02;;;;;;;11.83;7.30;;;;;;;;;;747899;186;1017418;-73
2021/05/04 06:11:28;;;;;;;14.57;8.50;;;;;;;;;;746283;185;925095;-72
2021/05/04 06:13:54;;;;;;;15.77;8.40;;;;;;;;;;738718;186;2041771;-72
2021/05/04 06:16:20;;;;;;;12.03;7.90;;;;;;;;;;746432;186;912659;-72
2021/05/04 06:18:46;;;;;;;11.30;8.30;;;;;;;;;;743980;185;919272;-73
2021/05/04 06:21:11;;;;;;;9.63;7.23;;;;;;;;;;740596;186;920106;-74
2021/05/04 06:23:37;;;;;;;11.10;8.30;;;;;;;;;;743707;186;918807;-70
2021/05/04 06:26:04;;;;;;;10.33;7.53;;;;;;;;;;745777;185;1270283;-72
2021/05/04 06:28:29;;;;;;;9.37;6.53;;;;;;;;;;749908;185;919586;-74
2021/05/04 06:30:55;;;;;;;8.80;6.65;;;;;;;;;;746760;185;918924;-74
2021/05/04 06:33:21;;;;;;;7.50;5.47;;;;;;;;;;749010;187;919401;-71
2021/05/04 06:35:49;;;;;;;8.60;6.57;;;;;;;;;;744215;187;919271;-74
2021/05/04 06:38:15;;;;;;;11.23;6.60;;;;;;;;;;747602;185;918065;-73
2021/05/04 06:40:39;;;;;;;10.00;5.60;;;;;;;;;;751871;185;627198;-72
2021/05/04 06:43:05;;;;;;;8.47;6.60;;;;;;;;;;741537;185;919327;-70
2021/05/04 06:45:31;;;;;;;10.33;6.60;;;;;;;;;;743589;185;919610;-73
2021/05/04 06:47:57;;;;;;;7.27;5.60;;;;;;;;;;741046;187;926689;-69
2021/05/04 06:50:23;;;;;;;7.13;6.00;;;;;;;;;;754622;184;919538;-69
2021/05/04 06:52:49;;;;;;;7.53;5.73;;;;;;;;;;741019;186;919093;-70
2021/05/04 06:55:15;;;;;;;8.38;5.75;;;;;;;;;;743374;187;1097510;-70
2021/05/04 06:57:40;;;;;;;12.03;6.13;;;;;;;;;;750578;185;714428;-69
2021/05/04 07:00:07;;;;;;;8.80;5.50;;;;;;;;;;744647;187;919367;-69
2021/05/04 07:02:33;;;;;;;10.17;5.50;;;;;;;;;;743755;185;921756;-68
2021/05/04 07:04:59;;;;;;;9.57;5.87;;;;;;;;;;750041;186;918355;-68
2021/05/04 07:07:24;;;;;;;8.97;5.83;;;;;;;;;;744317;185;918737;-70
2021/05/04 07:09:50;;;;;;;5.73;4.70;;;;;;;;;;751726;185;814669;-68
2021/05/04 07:12:17;;;;;;;8.48;5.75;;;;;;;;;;750399;185;914896;-68
2021/05/04 07:14:43;;;;;;;8.97;6.13;;;;;;;;;;755789;181;912808;-69
2021/05/04 07:17:09;;;;;;;8.00;5.83;;;;;;;;;;745903;187;919201;-70
2021/05/04 07:19:38;;;;;;;6.03;4.73;;;;;;;;;;745615;186;918875;-70
2021/05/04 07:22:01;;;;;;;5.50;4.20;;;;;;;;;;750398;186;1031637;-69
2021/05/04 07:24:27;;;;;;;5.40;4.53;;;;;;;;;;744337;185;919006;-69
2021/05/04 07:26:52;;;;;;;7.03;4.50;;;;;;;;;;749479;186;638383;-70
2021/05/04 07:29:18;;;;;;;5.30;4.20;;;;;;;;;;751363;186;616039;-68
2021/05/04 07:31:44;;;;;;;7.17;4.57;;;;;;;;;;745823;187;919339;-70
2021/05/04 07:34:10;;;;;;;5.70;4.30;;;;;;;;;;742615;185;993063;-69
2021/05/04 07:36:36;;;;;;;7.60;4.20;;;;;;;;;;749044;186;919437;-69
2021/05/04 07:39:02;;;;;;;5.00;4.00;;;;;;;;;;743396;185;918302;-70
2021/05/04 07:41:28;;;;;;;5.33;3.90;;;;;;;;;;742713;188;918550;-76
2021/05/04 07:43:53;;;;;;;4.43;3.50;;;;;;;;;;741225;185;919290;-69
2021/05/04 07:46:19;;;;;;;6.00;3.77;;;;;;;;;;749177;187;918790;-69
2021/05/04 07:48:45;;;;;;;5.40;3.10;;;;;;;;;;743304;185;924932;-72
2021/05/04 07:51:11;;;;;;;4.70;3.87;;;;;;;;;;743902;187;920091;-72
2021/05/04 07:53:37;;;;;;;5.00;3.90;;;;;;;;;;749268;187;889107;-70
2021/05/04 07:56:03;;;;;;;4.62;3.45;;;;;;;;;;740387;186;918858;-69
2021/05/04 07:58:30;;;;;;;5.53;4.00;;;;;;;;;;742519;188;919255;-69
2021/05/04 08:00:55;;;;;;;7.20;4.20;;;;;;;;;;746802;186;910151;-70
2021/05/04 08:03:20;;;;;;;7.00;3.90;;;;;;;;;;743111;186;919334;-69
2021/05/04 08:05:46;;;;;;;4.80;3.73;;;;;;;;;;740568;185;1014140;-71
2021/05/04 08:08:13;;;;;;;6.53;4.53;;;;;;;;;;744616;186;914294;-72
2021/05/04 08:10:38;;;;;;;6.40;4.43;;;;;;;;;;744019;186;918044;-69
2021/05/04 08:13:04;;;;;;;5.43;3.90;;;;;;;;;;742264;185;919309;-70
2021/05/04 08:15:30;;;;;;;10.33;4.67;;;;;;;;;;740984;185;919046;-69
2021/05/04 08:17:58;;;;;;;5.97;4.40;;;;;;;;;;749194;185;920506;-70
2021/05/04 08:20:22;;;;;;;5.70;4.80;;;;;;;;;;744401;185;1192378;-70
2021/05/04 08:22:47;;;;;;;7.73;4.97;;;;;;;;;;744184;186;1024787;-68
2021/05/04 08:25:13;;;;;;;5.37;4.40;;;;;;;;;;749004;185;919509;-69
2021/05/04 08:27:39;;;;;;;9.00;4.40;;;;;;;;;;746718;185;920222;-73
2021/05/04 08:30:06;;;;;;;7.27;4.83;;;;;;;;;;746022;186;919046;-68
2021/05/04 08:32:32;;;;;;;4.87;3.97;;;;;;;;;;747086;186;918972;-70
2021/05/04 08:34:58;;;;;;;7.80;6.00;;;;;;;;;;745379;185;885566;-70
2021/05/04 08:37:24;;;;;;;7.77;4.47;;;;;;;;;;742578;186;917770;-69
2021/05/04 08:39:50;;;;;;;6.83;4.87;;;;;;;;;;743209;185;923066;-68
2021/05/04 08:42:15;;;;;;;11.20;4.27;;;;;;;;;;747018;185;1127301;-73
2021/05/04 08:44:41;;;;;;;5.23;4.53;;;;;;;;;;743887;185;919908;-72
2021/05/04 08:47:07;;;;;;;6.13;4.80;;;;;;;;;;742492;186;914246;-68
2021/05/04 08:49:33;;;;;;;5.33;4.40;;;;;;;;;;747667;187;1021160;-69
2021/05/04 08:51:59;;;;;;;7.60;4.80;;;;;;;;;;741992;186;920916;-70
2021/05/04 08:54:25;;;;;;;8.97;4.60;;;;;;;;;;743731;184;917567;-68
2021/05/04 08:56:50;;;;;;;6.62;5.00;;;;;;;;;;746260;186;915138;-67
2021/05/04 08:59:16;;;;;;;6.50;4.27;;;;;;;;;;744803;184;919626;-68
2021/05/04 09:01:43;;;;;;;6.60;4.70;;;;;;;;;;741917;184;919331;-72
2021/05/04 09:04:11;;;;;;;9.20;3.73;;;;;;;;;;743399;185;919155;-69
2021/05/04 09:06:36;;;;;;;8.23;4.97;;;;;;;;;;748883;185;919369;-71
2021/05/04 09:09:04;;;;;;;6.50;4.57;;;;;;;;;;743640;185;919089;-73
2021/05/04 09:14:19;;;;;;;9.83;4.80;;;;;;;;;;738714;183;919756;-73
2021/05/04 09:16:51;;;;;;;5.73;4.83;;;;;;;;;;747454;187;918662;-71
2021/05/04 09:19:32;;;;;;;8.97;4.70;;;;;;;;;;749344;186;920368;-69
2021/05/04 09:21:45;;;;;;;6.00;4.50;;;;;;;;;;746013;187;786584;-69
2021/05/04 09:24:18;;;;;;;6.17;5.27;;;;;;;;;;740972;186;1020868;-72
2021/05/04 09:26:43;;;;;;;5.97;4.70;;;;;;;;;;744305;186;919665;-74
2021/05/04 09:29:10;;;;;;;7.60;5.00;;;;;;;;;;746557;185;916789;-72
2021/05/04 09:31:35;;;;;;;6.13;5.43;;;;;;;;;;746027;185;920066;-70
2021/05/04 09:34:06;;;;;;;8.27;5.63;;;;;;;;;;742265;185;915873;-70
2021/05/04 09:36:38;;;;;;;7.60;4.70;;;;;;;;;;749909;184;917005;-72
2021/05/04 09:39:04;;;;;;;13.23;6.13;;;;;;;;;;747759;186;917853;-70
2021/05/04 09:41:30;;;;;;;5.50;4.83;;;;;;;;;;744876;184;919088;-72
2021/05/04 09:43:56;;;;;;;4.53;4.05;;;;;;;;;;743874;185;919004;-69
2021/05/04 09:46:37;;;;;;;5.93;4.40;;;;;;;;;;751840;186;619750;-69
2021/05/04 09:49:03;;;;;;;7.53;5.70;;;;;;;;;;748369;186;931045;-69
2021/05/04 09:51:28;;;;;;;8.70;5.83;;;;;;;;;;745346;187;920284;-70
2021/05/04 09:54:04;;;;;;;7.27;5.83;;;;;;;;;;742541;186;918466;-69
2021/05/04 09:56:29;;;;;;;6.20;4.87;;;;;;;;;;748801;186;932483;-72
2021/05/04 09:58:55;;;;;;;6.47;5.40;;;;;;;;;;747275;186;919198;-71
2021/05/04 10:01:20;;;;;;;10.03;5.57;;;;;;;;;;743938;186;920343;-69
2021/05/04 10:03:46;;;;;;;6.93;5.10;;;;;;;;;;745055;185;931090;-69
2021/05/04 10:06:12;;;;;;;7.43;4.53;;;;;;;;;;748919;186;919025;-70
2021/05/04 10:08:38;;;;;;;6.17;4.10;;;;;;;;;;745062;184;918579;-71
2021/05/04 10:11:04;;;;;;;7.67;4.80;;;;;;;;;;740838;185;1032058;-73
2021/05/04 10:13:30;;;;;;;7.90;4.57;;;;;;;;;;752917;184;919542;-70
2021/05/04 10:15:56;;;;;;;5.80;4.10;;;;;;;;;;743428;186;1019311;-69
2021/05/04 10:18:21;;;;;;;7.17;5.10;;;;;;;;;;745066;185;931157;-73
2021/05/04 10:20:47;;;;;;;5.80;4.63;;;;;;;;;;744245;186;915325;-72
2021/05/04 10:23:13;;;;;;;7.80;5.47;;;;;;;;;;745174;185;920179;-69
2021/05/04 10:25:39;;;;;;;10.13;5.80;;;;;;;;;;743913;185;1141761;-70
2021/05/04 10:28:05;;;;;;;5.90;4.47;;;;;;;;;;743607;185;916724;-70
2021/05/04 10:30:31;;;;;;;6.25;4.28;;;;;;;;;;746036;187;915249;-72
2021/05/04 10:32:59;;;;;;;10.43;4.17;;;;;;;;;;742719;185;1028754;-68
2021/05/04 10:35:41;;;;;;;6.93;3.93;;;;;;;;;;742763;185;914585;-70
2021/05/04 10:38:06;;;;;;;5.47;3.67;;;;;;;;;;743161;187;919140;-71
2021/05/04 10:40:34;;;;;;;8.40;4.23;;;;;;;;;;746103;187;918721;-70
2021/05/04 10:42:57;;;;;;;5.20;4.33;;;;;;;;;;748149;185;919566;-69
2021/05/04 10:45:29;;;;;;;6.47;3.95;;;;;;;;;;748194;185;919699;-70
2021/05/04 10:47:55;;;;;;;4.40;3.70;;;;;;;;;;745240;186;917550;-71
2021/05/04 10:50:23;;;;;;;7.37;3.80;;;;;;;;;;751973;186;917102;-70
2021/05/04 10:52:58;;;;;;;8.93;5.30;;;;;;;;;;746776;186;918779;-70
2021/05/04 10:55:23;;;;;;;5.93;4.37;;;;;;;;;;744818;186;1229910;-72
2021/05/04 10:58:09;;;;;;;8.03;4.53;;;;;;;;;;744683;185;1003423;-70
2021/05/04 11:00:51;;;;;;;10.98;4.35;;;;;;;;;;746238;186;918570;-72
2021/05/04 11:03:23;;;;;;;7.43;4.47;;;;;;;;;;744394;186;919134;-71
2021/05/04 11:05:48;;;;;;;6.60;3.90;;;;;;;;;;749554;186;919567;-70
2021/05/04 11:08:14;;;;;;;7.20;4.10;;;;;;;;;;741304;185;919099;-69
2021/05/04 11:10:40;;;;;;;4.50;3.60;;;;;;;;;;742991;186;919355;-70
2021/05/04 11:13:06;;;;;;;5.13;4.10;;;;;;;;;;741563;186;918421;-70
2021/05/04 11:15:33;;;;;;;4.47;3.77;;;;;;;;;;748923;184;919300;-72
2021/05/04 11:17:58;;;;;;;5.80;3.67;;;;;;;;;;740088;186;1224407;-71
2021/05/04 11:20:28;;;;;;;5.10;3.97;;;;;;;;;;742200;186;920815;-71
2021/05/04 11:22:55;;;;;;;5.03;3.70;;;;;;;;;;750668;185;613706;-70
2021/05/04 11:25:26;;;;;;;8.40;4.20;;;;;;;;;;750333;185;620551;-72
2021/05/04 11:27:56;;;;;;;9.00;2.77;;;;;;;;;;744837;185;734998;-73
2021/05/04 11:30:25;;;;;;;4.00;3.20;;;;;;;;;;746527;185;918996;-70
2021/05/04 11:32:51;;;;;;;6.17;3.83;;;;;;;;;;749992;185;666944;-71
2021/05/04 11:35:17;;;;;;;4.97;3.40;;;;;;;;;;748474;186;629626;-69
2021/05/04 11:37:44;;;;;;;5.30;3.10;;;;;;;;;;747256;185;628886;-70
2021/05/04 11:40:10;;;;;;;4.63;2.90;;;;;;;;;;743679;187;1190974;-71
2021/05/04 11:42:38;;;;;;;4.23;3.10;;;;;;;;;;755850;184;626314;-70
2021/05/04 11:45:05;;;;;;;10.53;5.10;;;;;;;;;;746158;185;619496;-70
2021/05/04 11:47:31;;;;;;;3.87;2.80;;;;;;;;;;747194;186;915375;-69
2021/05/04 11:50:03;;;;;;;6.20;3.40;;;;;;;;;;746234;185;921097;-69
2021/05/04 11:52:29;;;;;;;4.53;2.80;;;;;;;;;;747035;186;914355;-69
2021/05/04 11:55:01;;;;;;;4.50;2.97;;;;;;;;;;742962;185;920400;-71
2021/05/04 11:57:28;;;;;;;4.07;2.70;;;;;;;;;;744886;187;925332;-70
2021/05/04 11:59:54;;;;;;;3.97;2.73;;;;;;;;;;748427;186;920082;-71
2021/05/04 12:02:25;;;;;;;3.87;3.03;;;;;;;;;;744834;185;918985;-70
2021/05/04 12:04:51;;;;;;;5.73;3.13;;;;;;;;;;733606;185;2144810;-69
2021/05/04 12:07:23;;;;;;;4.13;2.70;;;;;;;;;;746612;185;921226;-69
2021/05/04 12:09:49;;;;;;;3.60;2.77;;;;;;;;;;749269;186;721036;-69
2021/05/04 12:12:15;;;;;;;7.83;4.30;;;;;;;;;;746440;187;918582;-68
2021/05/04 12:14:47;;;;;;;3.30;2.40;;;;;;;;;;742092;187;918970;-70
2021/05/04 12:17:13;;;;;;;3.80;2.73;;;;;;;;;;745499;186;922296;-71
2021/05/04 12:19:38;;;;;;;7.47;3.27;;;;;;;;;;747449;185;919782;-69
2021/05/04 12:22:04;;;;;;;4.33;2.87;;;;;;;;;;744235;186;919422;-68
2021/05/04 12:24:30;;;;;;;7.13;2.67;;;;;;;;;;742254;184;914815;-71
2021/05/04 12:26:56;;;;;;;4.87;3.30;;;;;;;;;;748843;187;913650;-68
2021/05/04 12:29:25;;;;;;;6.23;3.00;;;;;;;;;;743357;187;915080;-68
2021/05/04 12:31:51;;;;;;;4.47;2.30;;;;;;;;;;740971;186;916190;-71
2021/05/04 12:34:16;;;;;;;4.53;2.23;;;;;;;;;;742486;185;919445;-68
2021/05/04 12:36:49;;;;;;;5.25;2.83;;;;;;;;;;749929;186;870662;-70
2021/05/04 12:39:17;;;;;;;3.70;2.73;;;;;;;;;;746109;185;919419;-69
2021/05/04 12:41:48;;;;;;;4.70;2.80;;;;;;;;;;744715;186;919518;-71
2021/05/04 12:46:44;;;;;;;4.80;2.70;;;;;;;;;;746724;185;1111594;-70
2021/05/04 12:49:10;;;;;;;8.90;3.30;;;;;;;;;;747017;187;620721;-70
2021/05/04 12:51:36;;;;;;;4.37;2.67;;;;;;;;;;744041;186;919010;-68
2021/05/04 12:54:03;;;;;;;3.63;2.90;;;;;;;;;;747929;185;919807;-68
2021/05/04 12:56:29;;;;;;;5.10;3.23;;;;;;;;;;745299;186;916630;-68
2021/05/04 12:58:56;;;;;;;4.33;2.63;;;;;;;;;;744844;185;924100;-68
2021/05/04 13:01:21;;;;;;;3.70;2.83;;;;;;;;;;743801;185;918425;-69
2021/05/04 13:03:50;;;;;;;3.87;2.50;;;;;;;;;;749389;185;919443;-69
2021/05/04 13:06:21;;;;;;;5.97;2.33;;;;;;;;;;744335;184;918541;-66
2021/05/04 13:08:48;;;;;;;3.08;2.30;;;;;;;;;;746773;186;918835;-67
2021/05/04 13:11:16;;;;;;;5.90;2.57;;;;;;;;;;741715;186;1023678;-68
2021/05/04 13:19:40;;;;;;;5.97;3.70;;;;;;;;;;746103;183;922777;-67
2021/05/04 13:28:16;;;;;;;3.87;2.45;;;;;;;;;;743447;186;918909;-67
2021/05/04 13:29:57;;;;;;;10.20;2.73;;;;;;;;;;747266;183;919615;-68
2021/05/04 13:32:20;;;;;;;4.27;3.40;;;;;;;;;;732370;186;2974437;-68
2021/05/04 13:34:49;;;;;;;4.10;2.47;;;;;;;;;;743107;186;918674;-68
2021/05/04 13:37:17;;;;;;;3.90;3.27;;;;;;;;;;745876;186;929789;-67
2021/05/04 13:39:54;;;;;;;3.90;3.13;;;;;;;;;;745455;185;919202;-68
2021/05/04 13:49:53;;;;;;;2.93;2.23;;;;;;;;;;747335;186;919117;-70
2021/05/04 13:52:19;;;;;;;4.53;2.57;;;;;;;;;;745284;185;914936;-69
2021/05/04 13:54:45;;;;;;;3.77;2.90;;;;;;;;;;740966;186;1249387;-69
2021/05/04 13:57:15;;;;;;;4.07;2.77;;;;;;;;;;750962;185;913103;-68
2021/05/04 13:59:36;;;;;;;11.87;3.47;;;;;;;;;;742314;185;963311;-67
2021/05/04 14:02:10;;;;;;;4.57;3.00;;;;;;;;;;743827;186;1019026;-68
2021/05/04 14:04:42;;;;;;;6.23;2.70;;;;;;;;;;742047;187;916703;-70
2021/05/04 14:14:26;;;;;;;7.00;3.17;;;;;;;;;;741259;185;624009;-68
2021/05/04 14:24:39;;;;;;;8.07;3.67;;;;;;;;;;745619;186;919851;-68
2021/05/04 14:25:53;;;;;;;4.33;2.63;;;;;;;;;;748406;186;646706;-69
2021/05/04 14:27:38;;;;;;;3.77;3.37;;;;;;;;;;750826;186;919510;-68
2021/05/04 14:30:04;;;;;;;4.23;3.23;;;;;;;;;;741754;186;919439;-67
2021/05/04 14:32:30;;;;;;;4.87;2.85;;;;;;;;;;743260;186;920597;-66
2021/05/04 14:34:57;;;;;;;6.47;3.10;;;;;;;;;;750321;186;625884;-68
2021/05/04 14:37:30;;;;;;;5.20;2.90;;;;;;;;;;748348;186;906342;-68
2021/05/04 14:40:00;;;;;;;3.70;3.17;;;;;;;;;;733323;185;2852297;-68
2021/05/04 14:45:17;;;;;;;6.33;3.07;;;;;;;;;;746299;185;919160;-70
2021/05/04 14:47:37;;;;;;;4.10;2.97;;;;;;;;;;745691;186;919385;-67
2021/05/04 15:00:19;;;;;;;4.40;3.13;;;;;;;;;;759509;183;624743;-68
2021/05/04 15:02:24;;;;;;;5.30;2.37;;;;;;;;;;746100;185;928530;-67
2021/05/04 15:04:58;;;;;;;7.63;2.80;;;;;;;;;;744959;184;919429;-67